Time;durP1;ratioP1;P1;durP2;ratioP2;P2;SDS_P1;SDS_P2;PMS_P1;PMS_P2;Temp;Humidity;BMP_temperature;BMP_pressure;BME280_temperature;BME280_humidity;BME280_pressure;Samples;Min_cycle;Max_cycle;Signal;HPM_P1;HPM_P2
2022/02/27 00:00:14;;;;;;;28.40;12.10;;;;;;;-1.98;88.59;102814.80;107907;1277;59214;-76
2022/02/27 00:02:42;;;;;;;33.00;11.30;;;;;;;-2.01;88.49;102819.04;107948;1278;76222;-76
2022/02/27 00:05:09;;;;;;;27.20;12.10;;;;;;;-2.05;88.66;102826.23;107627;1280;72394;-77
2022/02/27 00:07:36;;;;;;;30.90;11.80;;;;;;;-2.06;88.86;102821.94;107931;1278;73820;-77
2022/02/27 00:10:04;;;;;;;38.70;12.60;;;;;;;-2.08;88.93;102823.55;107904;1280;62542;-78
2022/02/27 00:12:31;;;;;;;34.40;12.30;;;;;;;-2.10;89.04;102822.55;107914;1277;60857;-77
2022/02/27 00:14:57;;;;;;;36.00;13.10;;;;;;;-2.12;89.19;102819.84;107880;1277;59354;-77
2022/02/27 00:17:24;;;;;;;32.60;11.40;;;;;;;-2.13;89.45;102824.38;107541;1281;71580;-77
2022/02/27 00:19:50;;;;;;;35.20;12.40;;;;;;;-2.15;89.48;102823.04;107944;1278;59029;-76
2022/02/27 00:22:18;;;;;;;33.60;13.30;;;;;;;-2.16;89.50;102827.58;107993;1277;62553;-76
2022/02/27 00:24:44;;;;;;;28.80;12.60;;;;;;;-2.18;89.54;102826.77;107807;1280;59935;-76
2022/02/27 00:27:10;;;;;;;36.70;13.10;;;;;;;-2.19;89.73;102824.02;107793;1281;58521;-77
2022/02/27 00:29:37;;;;;;;32.70;12.60;;;;;;;-2.20;89.80;102827.02;108000;1277;59152;-77
2022/02/27 00:32:05;;;;;;;36.50;14.00;;;;;;;-2.23;89.77;102829.49;107971;1277;59179;-77
2022/02/27 00:34:31;;;;;;;38.40;14.10;;;;;;;-2.26;89.69;102831.13;107979;1277;62362;-77
2022/02/27 00:36:58;;;;;;;32.40;12.70;;;;;;;-2.28;89.84;102835.16;107916;1277;58515;-76
2022/02/27 00:39:24;;;;;;;34.30;13.40;;;;;;;-2.31;89.86;102830.73;107961;1277;59178;-76
2022/02/27 00:41:51;;;;;;;32.00;12.80;;;;;;;-2.32;89.76;102829.73;107807;1281;59142;-77
2022/02/27 00:44:19;;;;;;;37.30;13.40;;;;;;;-2.34;89.90;102826.15;107972;1277;72831;-75
2022/02/27 00:46:45;;;;;;;41.90;15.20;;;;;;;-2.35;90.07;102825.83;107872;1281;60148;-75
2022/02/27 00:49:12;;;;;;;41.40;14.90;;;;;;;-2.36;90.28;102826.02;107902;1279;60984;-77
2022/02/27 00:51:38;;;;;;;32.40;13.10;;;;;;;-2.37;90.38;102825.36;107884;1281;59472;-75
2022/02/27 00:54:07;;;;;;;33.00;11.70;;;;;;;-2.38;90.34;102821.05;107914;1279;71513;-77
2022/02/27 00:56:34;;;;;;;33.70;12.70;;;;;;;-2.39;90.39;102819.52;107992;1278;74075;-77
2022/02/27 00:59:00;;;;;;;40.70;13.00;;;;;;;-2.40;90.51;102819.02;107958;1278;61429;-76
2022/02/27 01:01:27;;;;;;;36.10;12.80;;;;;;;-2.40;90.78;102815.20;107898;1279;60248;-77
2022/02/27 01:03:54;;;;;;;31.50;12.50;;;;;;;-2.41;90.89;102815.39;107957;1277;75883;-77
2022/02/27 01:06:20;;;;;;;29.90;12.50;;;;;;;-2.42;90.73;102817.85;107881;1280;72902;-76
2022/02/27 01:08:47;;;;;;;35.10;12.90;;;;;;;-2.44;90.71;102814.26;107994;1278;73389;-78
2022/02/27 01:11:14;;;;;;;31.50;12.00;;;;;;;-2.47;90.51;102815.55;107927;1279;62650;-76
2022/02/27 01:13:40;;;;;;;41.80;12.00;;;;;;;-2.51;90.59;102816.67;108011;1277;60329;-77
2022/02/27 01:16:07;;;;;;;38.60;15.40;;;;;;;-2.53;90.78;102817.45;108020;1277;74849;-77
2022/02/27 01:18:33;;;;;;;32.30;12.30;;;;;;;-2.55;90.91;102819.21;108022;1277;70077;-76
2022/02/27 01:21:00;;;;;;;27.30;13.20;;;;;;;-2.56;90.97;102823.23;107996;1278;72952;-76
2022/02/27 01:23:34;;;;;;;45.70;14.60;;;;;;;-2.58;91.11;102820.31;107874;1279;61335;-77
2022/02/27 01:26:00;;;;;;;28.60;11.70;;;;;;;-2.60;91.09;102818.64;107987;1279;59091;-77
2022/02/27 01:28:31;;;;;;;31.00;12.30;;;;;;;-2.62;91.13;102820.77;108002;1277;76768;-77
2022/02/27 01:30:57;;;;;;;28.20;10.70;;;;;;;-2.62;91.47;102820.44;107901;1279;59493;-77
2022/02/27 01:33:24;;;;;;;31.20;12.40;;;;;;;-2.62;91.61;102821.13;107970;1278;59945;-77
2022/02/27 01:35:51;;;;;;;30.70;11.70;;;;;;;-2.63;91.73;102817.33;107840;1279;61578;-77
2022/02/27 01:38:17;;;;;;;34.80;12.00;;;;;;;-2.63;91.91;102818.38;107988;1278;58535;-76
2022/02/27 01:40:44;;;;;;;30.30;11.90;;;;;;;-2.63;91.93;102817.52;107989;1277;75948;-76
2022/02/27 01:43:10;;;;;;;42.10;12.60;;;;;;;-2.63;91.96;102818.73;108028;1277;59175;-77
2022/02/27 01:45:37;;;;;;;33.90;12.20;;;;;;;-2.63;92.10;102816.82;107866;1280;59398;-77
2022/02/27 01:48:04;;;;;;;36.70;11.40;;;;;;;-2.63;92.32;102817.85;108008;1277;62487;-76
2022/02/27 01:50:30;;;;;;;32.80;12.40;;;;;;;-2.63;92.45;102823.04;107985;1278;60751;-77
2022/02/27 01:52:57;;;;;;;31.60;11.30;;;;;;;-2.63;92.44;102821.49;108053;1277;59229;-76
2022/02/27 01:55:23;;;;;;;36.10;11.50;;;;;;;-2.63;92.52;102823.56;107849;1280;59090;-76
2022/02/27 01:57:50;;;;;;;32.60;12.40;;;;;;;-2.65;92.49;102824.83;108022;1277;74275;-77
2022/02/27 02:00:17;;;;;;;35.60;13.70;;;;;;;-2.66;92.56;102822.77;107997;1278;61159;-76
2022/02/27 02:02:44;;;;;;;31.50;11.90;;;;;;;-2.68;92.50;102823.52;107983;1277;62331;-76
2022/02/27 02:05:12;;;;;;;23.90;12.20;;;;;;;-2.71;92.57;102822.55;108001;1280;75869;-76
2022/02/27 02:07:42;;;;;;;30.70;11.80;;;;;;;-2.72;92.63;102821.88;107961;1280;73004;-76
2022/02/27 02:10:09;;;;;;;39.50;12.40;;;;;;;-2.76;92.68;102821.27;108002;1278;72986;-76
2022/02/27 02:12:36;;;;;;;26.70;11.20;;;;;;;-2.78;92.64;102822.21;108004;1277;61468;-76
2022/02/27 02:15:03;;;;;;;31.30;12.30;;;;;;;-2.81;92.73;102816.73;107844;1277;59130;-76
2022/02/27 02:17:30;;;;;;;35.80;11.40;;;;;;;-2.84;92.84;102816.63;107863;1280;76122;-77
2022/02/27 02:19:57;;;;;;;27.20;12.10;;;;;;;-2.88;92.87;102812.38;107706;1278;71565;-77
2022/02/27 02:22:23;;;;;;;29.20;13.00;;;;;;;-2.90;92.90;102814.33;108031;1277;59234;-75
2022/02/27 02:24:50;;;;;;;32.50;12.20;;;;;;;-2.94;92.99;102809.92;107971;1277;59129;-75
2022/02/27 02:27:16;;;;;;;37.00;12.80;;;;;;;-2.96;93.15;102813.42;107900;1279;59742;-77
2022/02/27 02:29:43;;;;;;;36.00;12.00;;;;;;;-2.98;93.37;102811.05;107992;1277;59210;-77
2022/02/27 02:32:10;;;;;;;33.90;13.00;;;;;;;-3.01;93.36;102811.63;107998;1277;72818;-77
2022/02/27 02:34:36;;;;;;;37.50;12.60;;;;;;;-3.03;93.35;102809.59;108004;1277;59804;-76
2022/02/27 02:37:03;;;;;;;34.40;13.10;;;;;;;-3.05;93.62;102811.74;107677;1280;59494;-75
2022/02/27 02:39:30;;;;;;;26.40;11.60;;;;;;;-3.07;93.76;102810.56;107953;1278;61942;-76
2022/02/27 02:41:57;;;;;;;29.90;12.50;;;;;;;-3.09;93.95;102808.88;108022;1277;74894;-76
2022/02/27 02:44:25;;;;;;;38.50;12.80;;;;;;;-3.11;94.01;102810.13;107854;1279;71397;-76
2022/02/27 02:46:54;;;;;;;30.70;13.10;;;;;;;-3.13;94.23;102808.09;107964;1278;73350;-77
2022/02/27 02:49:21;;;;;;;30.80;12.00;;;;;;;-3.14;94.35;102812.79;107952;1277;60928;-76
2022/02/27 02:51:47;;;;;;;37.10;12.20;;;;;;;-3.15;94.41;102812.29;108011;1277;59186;-77
2022/02/27 02:54:14;;;;;;;31.10;12.50;;;;;;;-3.16;94.46;102812.33;107985;1277;59098;-77
2022/02/27 02:56:41;;;;;;;32.70;12.50;;;;;;;-3.18;94.49;102817.21;107993;1277;59091;-75
2022/02/27 02:59:07;;;;;;;29.40;11.90;;;;;;;-3.20;94.56;102816.05;107984;1277;72927;-76
2022/02/27 03:01:34;;;;;;;37.70;13.70;;;;;;;-3.22;94.48;102813.67;107981;1277;63237;-76
2022/02/27 03:04:03;;;;;;;34.00;13.00;;;;;;;-3.24;94.68;102811.98;107906;1277;60485;-74
2022/02/27 03:06:30;;;;;;;24.50;12.30;;;;;;;-3.26;94.69;102816.88;107721;1280;74356;-75
2022/02/27 03:08:57;;;;;;;36.60;13.50;;;;;;;-3.29;94.65;102821.42;107873;1279;71218;-75
2022/02/27 03:11:24;;;;;;;25.80;11.50;;;;;;;-3.31;94.77;102819.59;107862;1280;72955;-76
2022/02/27 03:13:50;;;;;;;33.50;13.70;;;;;;;-3.33;94.85;102814.59;107950;1277;62286;-76
2022/02/27 03:16:18;;;;;;;24.40;11.70;;;;;;;-3.35;95.06;102817.05;107839;1279;61702;-75
2022/02/27 03:18:44;;;;;;;36.60;12.10;;;;;;;-3.36;95.88;102817.59;107971;1277;76096;-75
2022/02/27 03:21:11;;;;;;;30.90;11.30;;;;;;;-3.34;96.14;102818.58;107978;1278;72830;-76
2022/02/27 03:23:38;;;;;;;32.10;11.60;;;;;;;-3.33;95.93;102819.25;107939;1277;72963;-76
2022/02/27 03:26:07;;;;;;;24.80;11.10;;;;;;;-3.35;95.64;102819.98;107840;1279;63263;-77
2022/02/27 03:28:33;;;;;;;36.70;13.30;;;;;;;-3.36;95.62;102816.21;107855;1280;60751;-76
2022/02/27 03:31:00;;;;;;;39.50;13.00;;;;;;;-3.36;95.68;102817.95;107992;1277;74901;-77
2022/02/27 03:33:26;;;;;;;33.70;12.50;;;;;;;-3.38;95.75;102813.83;107954;1278;59246;-75
2022/02/27 03:35:53;;;;;;;33.00;12.00;;;;;;;-3.39;95.82;102814.38;107871;1280;74207;-75
2022/02/27 03:38:19;;;;;;;35.30;12.60;;;;;;;-3.40;95.87;102809.90;107986;1277;59144;-75
2022/02/27 03:40:46;;;;;;;32.30;13.00;;;;;;;-3.41;95.96;102812.00;107966;1278;58538;-75
2022/02/27 03:43:13;;;;;;;37.10;13.30;;;;;;;-3.41;96.12;102812.85;107835;1278;59820;-77
2022/02/27 03:45:39;;;;;;;32.20;11.10;;;;;;;-3.40;96.41;102812.33;107917;1279;71514;-76
2022/02/27 03:48:06;;;;;;;25.60;9.90;;;;;;;-3.40;96.67;102807.98;107967;1277;58949;-75
2022/02/27 03:50:33;;;;;;;27.00;11.40;;;;;;;-3.39;96.58;102810.05;107959;1278;62216;-75
2022/02/27 03:52:59;;;;;;;29.80;11.90;;;;;;;-3.40;96.51;102810.08;107897;1279;60594;-75
2022/02/27 03:55:26;;;;;;;24.60;9.90;;;;;;;-3.42;96.49;102810.64;107969;1278;59178;-77
2022/02/27 03:57:52;;;;;;;31.60;11.20;;;;;;;-3.41;96.88;102813.91;107843;1279;59382;-77
2022/02/27 04:00:19;;;;;;;41.60;13.60;;;;;;;-3.40;97.08;102816.48;107983;1277;58477;-75
2022/02/27 04:02:46;;;;;;;32.00;12.20;;;;;;;-3.39;97.25;102817.50;107993;1277;63671;-77
2022/02/27 04:05:14;;;;;;;30.50;12.70;;;;;;;-3.37;97.50;102817.97;107881;1279;59476;-76
2022/02/27 04:07:41;;;;;;;35.90;12.30;;;;;;;-3.33;97.78;102817.02;107998;1277;75977;-75
2022/02/27 04:10:08;;;;;;;36.40;12.50;;;;;;;-3.30;97.96;102813.33;107989;1277;71840;-75
2022/02/27 04:12:35;;;;;;;33.50;13.10;;;;;;;-3.27;98.09;102813.42;107971;1277;74462;-76
2022/02/27 04:15:04;;;;;;;31.20;10.80;;;;;;;-3.25;98.18;102811.83;107971;1278;61150;-74
2022/02/27 04:17:31;;;;;;;43.60;13.80;;;;;;;-3.21;98.46;102814.34;107589;1279;60600;-77
2022/02/27 04:19:58;;;;;;;27.00;10.80;;;;;;;-3.17;98.60;102823.44;108006;1278;75837;-76
2022/02/27 04:22:26;;;;;;;22.80;10.90;;;;;;;-3.14;98.81;102817.98;107842;1279;71372;-75
2022/02/27 04:24:55;;;;;;;34.60;14.70;;;;;;;-3.12;98.79;102813.80;107904;1279;72959;-76
2022/02/27 04:27:21;;;;;;;35.50;13.30;;;;;;;-3.10;98.80;102813.59;107990;1278;62238;-75
2022/02/27 04:29:48;;;;;;;33.70;13.40;;;;;;;-3.10;98.72;102812.89;107859;1280;61866;-77
2022/02/27 04:32:15;;;;;;;36.30;13.50;;;;;;;-3.10;98.58;102814.09;107973;1278;74842;-76
2022/02/27 04:34:42;;;;;;;29.50;12.00;;;;;;;-3.11;98.48;102812.73;108032;1279;72123;-75
2022/02/27 04:37:09;;;;;;;15.90;6.80;;;;;;;-3.11;98.72;102810.48;108043;1278;59053;-76
2022/02/27 04:39:36;;;;;;;32.40;11.80;;;;;;;-3.12;98.65;102810.34;108001;1278;61925;-77
2022/02/27 04:42:03;;;;;;;27.40;11.10;;;;;;;-3.12;98.76;102816.06;107883;1277;60491;-76
2022/02/27 04:44:30;;;;;;;37.40;14.20;;;;;;;-3.12;98.86;102813.27;108024;1277;75227;-77
2022/02/27 04:46:57;;;;;;;32.40;12.70;;;;;;;-3.12;99.03;102813.10;108055;1277;72184;-78
2022/02/27 04:49:25;;;;;;;35.00;11.10;;;;;;;-3.10;99.24;102815.65;107984;1277;73921;-78
2022/02/27 04:51:52;;;;;;;30.50;12.20;;;;;;;-3.09;99.27;102814.92;107887;1279;62285;-76
2022/02/27 04:54:18;;;;;;;37.30;11.20;;;;;;;-3.09;99.10;102812.16;107993;1277;61417;-76
2022/02/27 04:56:44;;;;;;;21.30;9.30;;;;;;;-3.08;99.26;102811.82;108052;1278;59202;-75
2022/02/27 04:59:11;;;;;;;29.20;8.50;;;;;;;-3.08;99.32;102809.56;107859;1277;59182;-77
2022/02/27 05:01:39;;;;;;;41.60;13.20;;;;;;;-3.09;99.20;102802.81;108018;1278;59037;-77
2022/02/27 05:04:06;;;;;;;38.10;13.60;;;;;;;-3.10;99.05;102807.68;108011;1277;62082;-75
2022/02/27 05:06:33;;;;;;;26.00;11.60;;;;;;;-3.12;98.98;102808.43;107868;1280;60674;-75
2022/02/27 05:09:00;;;;;;;48.00;14.60;;;;;;;-3.14;98.91;102806.58;108019;1277;75184;-78
2022/02/27 05:11:27;;;;;;;37.40;13.40;;;;;;;-3.16;98.98;102808.86;108046;1277;71373;-77
2022/02/27 05:13:54;;;;;;;45.60;13.30;;;;;;;-3.18;98.88;102812.38;108008;1277;59213;-76
2022/02/27 05:16:20;;;;;;;38.70;12.00;;;;;;;-3.23;98.82;102812.30;107855;1280;62101;-75
2022/02/27 05:18:47;;;;;;;41.90;13.60;;;;;;;-3.25;98.87;102811.81;108038;1277;59304;-77
2022/02/27 05:21:13;;;;;;;42.30;14.30;;;;;;;-3.29;98.67;102813.45;107702;1280;58611;-77
2022/02/27 05:23:41;;;;;;;41.30;14.40;;;;;;;-3.32;98.58;102814.05;107821;1279;71312;-75
2022/02/27 05:26:07;;;;;;;39.40;12.50;;;;;;;-3.36;98.46;102815.17;108037;1278;59205;-77
2022/02/27 05:28:34;;;;;;;36.90;12.30;;;;;;;-3.40;98.54;102812.14;107986;1277;59190;-75
2022/02/27 05:31:00;;;;;;;41.50;13.30;;;;;;;-3.42;98.63;102810.45;107885;1278;59263;-75
2022/02/27 05:33:27;;;;;;;33.40;13.40;;;;;;;-3.46;98.51;102815.73;108007;1277;59327;-76
2022/02/27 05:35:53;;;;;;;35.00;12.90;;;;;;;-3.50;98.51;102821.35;108088;1279;72397;-76
2022/02/27 05:38:20;;;;;;;41.50;14.50;;;;;;;-3.54;98.35;102818.84;107918;1279;59248;-76
2022/02/27 05:40:46;;;;;;;43.40;14.50;;;;;;;-3.57;98.42;102819.94;108034;1277;59553;-75
2022/02/27 05:43:13;;;;;;;35.50;13.80;;;;;;;-3.59;98.61;102825.52;107854;1279;59356;-75
2022/02/27 05:45:39;;;;;;;40.70;13.30;;;;;;;-3.61;98.67;102822.61;107858;1279;59196;-77
2022/02/27 05:48:06;;;;;;;43.10;13.60;;;;;;;-3.62;98.89;102826.63;108003;1277;59211;-75
2022/02/27 05:50:33;;;;;;;37.20;13.50;;;;;;;-3.64;98.99;102828.04;108015;1278;74197;-77
2022/02/27 05:53:00;;;;;;;36.10;14.30;;;;;;;-3.63;99.18;102828.88;108025;1277;63689;-75
2022/02/27 05:55:27;;;;;;;40.40;14.20;;;;;;;-3.61;99.37;102830.92;107874;1280;60487;-76
2022/02/27 05:57:59;;;;;;;48.50;14.10;;;;;;;-3.61;99.58;102836.96;108004;1277;76253;-76
2022/02/27 06:00:25;;;;;;;43.40;13.70;;;;;;;-3.60;99.66;102838.16;107847;1280;71333;-76
2022/02/27 06:02:52;;;;;;;33.40;12.70;;;;;;;-3.58;99.84;102838.47;108031;1277;72832;-75
2022/02/27 06:05:19;;;;;;;41.00;12.80;;;;;;;-3.55;99.98;102841.52;107945;1279;63376;-76
2022/02/27 06:07:46;;;;;;;39.80;14.30;;;;;;;-3.51;100.00;102843.18;107942;1279;59134;-77
2022/02/27 06:10:13;;;;;;;31.00;12.50;;;;;;;-3.48;100.00;102843.98;107858;1281;75177;-75
2022/02/27 06:12:49;;;;;;;48.80;13.60;;;;;;;-3.43;100.00;102838.67;108004;1277;71331;-75
2022/02/27 06:15:18;;;;;;;38.70;14.90;;;;;;;-3.38;100.00;102839.10;107991;1277;73959;-77
2022/02/27 06:17:44;;;;;;;49.20;16.20;;;;;;;-3.34;100.00;102838.13;108029;1277;61958;-77
2022/02/27 06:20:11;;;;;;;40.50;14.60;;;;;;;-3.30;100.00;102836.86;107824;1277;60311;-77
2022/02/27 06:22:43;;;;;;;51.50;15.60;;;;;;;-3.26;100.00;102840.92;108056;1277;76295;-77
2022/02/27 06:25:10;;;;;;;41.80;14.20;;;;;;;-3.22;100.00;102844.64;107819;1280;72404;-77
2022/02/27 06:27:42;;;;;;;48.10;15.30;;;;;;;-3.18;100.00;102848.53;108018;1277;72084;-76
2022/02/27 06:30:17;;;;;;;43.70;15.80;;;;;;;-3.13;100.00;102853.63;108048;1278;62068;-76
2022/02/27 06:32:47;;;;;;;49.00;15.70;;;;;;;-3.09;100.00;102857.67;108023;1277;62502;-77
2022/02/27 06:35:14;;;;;;;53.10;17.40;;;;;;;-3.04;100.00;102861.39;108017;1277;74916;-77
2022/02/27 06:37:41;;;;;;;55.60;17.80;;;;;;;-3.00;100.00;102861.83;108031;1278;71839;-74
2022/02/27 06:40:09;;;;;;;48.50;17.40;;;;;;;-2.96;100.00;102868.32;107732;1279;72873;-75
2022/02/27 06:42:37;;;;;;;59.10;18.90;;;;;;;-2.92;100.00;102863.89;108071;1278;61579;-76
2022/02/27 06:45:06;;;;;;;49.70;18.80;;;;;;;-2.88;100.00;102865.01;107839;1280;60641;-78
2022/02/27 06:47:32;;;;;;;55.90;17.50;;;;;;;-2.82;100.00;102868.02;108050;1279;74960;-75
2022/02/27 06:49:59;;;;;;;65.40;20.70;;;;;;;-2.77;100.00;102867.02;108025;1278;70307;-75
2022/02/27 06:52:26;;;;;;;57.80;19.50;;;;;;;-2.70;100.00;102873.79;108025;1278;73945;-75
2022/02/27 06:54:53;;;;;;;53.50;19.20;;;;;;;-2.64;100.00;102868.30;108005;1277;62457;-75
2022/02/27 06:57:20;;;;;;;65.50;20.00;;;;;;;-2.57;100.00;102870.38;108061;1277;60317;-75
2022/02/27 06:59:46;;;;;;;57.90;20.40;;;;;;;-2.50;100.00;102870.35;108054;1278;59384;-75
2022/02/27 07:02:14;;;;;;;53.20;20.10;;;;;;;-2.33;100.00;102873.42;108047;1278;72639;-76
2022/02/27 07:04:41;;;;;;;63.00;21.40;;;;;;;-2.15;100.00;102878.18;108033;1277;73068;-75
2022/02/27 07:07:07;;;;;;;66.40;22.10;;;;;;;-2.07;100.00;102878.48;107824;1279;62507;-78
2022/02/27 07:09:34;;;;;;;66.00;23.10;;;;;;;-1.99;100.00;102878.63;108027;1277;59400;-77
2022/02/27 07:12:01;;;;;;;62.90;22.80;;;;;;;-1.92;100.00;102887.98;108051;1277;73867;-77
2022/02/27 07:14:28;;;;;;;63.60;22.30;;;;;;;-1.86;100.00;102886.25;107795;1279;70354;-77
2022/02/27 07:16:54;;;;;;;72.20;22.30;;;;;;;-1.77;100.00;102889.85;107639;1280;74184;-77
2022/02/27 07:19:24;;;;;;;60.40;21.20;;;;;;;-1.69;100.00;102888.59;107952;1277;59164;-77
2022/02/27 07:21:50;;;;;;;68.40;23.00;;;;;;;-1.59;100.00;102891.42;107984;1278;60685;-77
2022/02/27 07:24:18;;;;;;;71.90;21.60;;;;;;;-1.49;100.00;102887.71;107966;1277;76813;-77
2022/02/27 07:26:44;;;;;;;61.40;23.30;;;;;;;-1.41;100.00;102888.85;107777;1279;71760;-77
2022/02/27 07:29:11;;;;;;;62.20;23.40;;;;;;;-1.32;100.00;102888.59;107790;1279;73083;-77
2022/02/27 07:31:37;;;;;;;71.60;23.50;;;;;;;-1.22;100.00;102891.43;107799;1280;62562;-77
2022/02/27 07:34:04;;;;;;;68.00;23.80;;;;;;;-1.11;100.00;102886.97;107949;1277;60604;-77
2022/02/27 07:36:30;;;;;;;52.80;22.40;;;;;;;-1.01;100.00;102887.00;107967;1279;59123;-77
2022/02/27 07:38:57;;;;;;;63.70;22.80;;;;;;;-0.90;100.00;102892.07;108010;1278;59302;-76
2022/02/27 07:41:23;;;;;;;78.30;25.60;;;;;;;-0.80;100.00;102892.64;107756;1278;72943;-75
2022/02/27 07:43:58;;;;;;;57.30;20.50;;;;;;;-0.70;100.00;102892.51;108004;1278;62129;-76
2022/02/27 07:46:24;;;;;;;80.70;26.30;;;;;;;-0.61;100.00;102896.20;108006;1278;61118;-77
2022/02/27 07:48:51;;;;;;;70.00;24.50;;;;;;;-0.51;100.00;102895.02;107786;1279;73863;-77
2022/02/27 07:51:23;;;;;;;82.20;27.60;;;;;;;-0.40;99.97;102899.89;107565;1279;71734;-77
2022/02/27 07:53:49;;;;;;;79.40;27.60;;;;;;;-0.26;100.00;102897.70;108010;1278;59272;-77
2022/02/27 07:56:16;;;;;;;81.00;28.30;;;;;;;-0.12;100.00;102900.89;108033;1278;59145;-77
2022/02/27 07:58:42;;;;;;;87.00;28.10;;;;;;;0.03;100.00;102900.73;107968;1278;59108;-77
2022/02/27 08:01:09;;;;;;;83.10;29.00;;;;;;;0.16;100.00;102905.33;107883;1280;59256;-77
2022/02/27 08:03:36;;;;;;;82.30;28.20;;;;;;;0.29;100.00;102902.42;107682;1279;72039;-77
2022/02/27 08:06:08;;;;;;;76.50;26.80;;;;;;;0.42;99.78;102900.77;107884;1279;74736;-77
2022/02/27 08:08:35;;;;;;;72.20;25.40;;;;;;;0.55;99.44;102901.88;107798;1279;60227;-77
2022/02/27 08:11:06;;;;;;;75.20;27.30;;;;;;;0.65;99.03;102902.02;107947;1279;59152;-77
2022/02/27 08:13:34;;;;;;;75.50;27.20;;;;;;;0.77;98.75;102905.39;107974;1278;75007;-77
2022/02/27 08:16:00;;;;;;;61.40;23.00;;;;;;;0.90;98.58;102903.38;107996;1278;72803;-77
2022/02/27 08:18:29;;;;;;;69.40;23.50;;;;;;;1.02;98.38;102901.18;107754;1279;73976;-77
2022/02/27 08:20:56;;;;;;;58.10;20.60;;;;;;;1.13;98.08;102908.77;107393;1281;60351;-78
2022/02/27 08:23:25;;;;;;;97.00;27.90;;;;;;;1.25;98.09;102906.40;107979;1278;59769;-78
2022/02/27 08:25:53;;;;;;;69.80;23.00;;;;;;;1.40;98.13;102909.11;108024;1278;75739;-79
2022/02/27 08:28:28;;;;;;;57.70;20.70;;;;;;;1.55;98.03;102904.69;107812;1281;72624;-78
2022/02/27 08:30:55;;;;;;;78.40;23.70;;;;;;;1.69;97.64;102904.64;107819;1280;72875;-79
2022/02/27 08:33:23;;;;;;;47.20;16.00;;;;;;;1.83;97.30;102907.20;107982;1278;62509;-79
2022/02/27 08:35:50;;;;;;;39.50;13.20;;;;;;;1.94;96.33;102910.57;108025;1277;61895;-79
2022/02/27 08:38:17;;;;;;;22.80;9.90;;;;;;;2.05;95.58;102909.27;108035;1279;59823;-79
2022/02/27 08:40:44;;;;;;;33.90;12.80;;;;;;;2.14;94.87;102914.64;107747;1279;70324;-77
2022/02/27 08:43:10;;;;;;;24.00;12.30;;;;;;;2.23;94.52;102912.67;107955;1279;73979;-78
2022/02/27 08:45:39;;;;;;;27.30;12.20;;;;;;;2.33;93.99;102912.05;108037;1278;61183;-81
2022/02/27 08:48:05;;;;;;;36.10;12.80;;;;;;;2.41;93.14;102914.33;108101;1278;59180;-77
2022/02/27 08:50:33;;;;;;;26.50;10.50;;;;;;;2.50;92.81;102921.30;108024;1277;58681;-79
2022/02/27 08:52:59;;;;;;;23.90;8.80;;;;;;;2.60;92.65;102924.88;108085;1279;72447;-80
2022/02/27 08:55:26;;;;;;;24.80;11.50;;;;;;;2.69;92.15;102921.87;108054;1279;73224;-80
2022/02/27 08:57:53;;;;;;;25.40;11.00;;;;;;;2.79;91.67;102924.35;107814;1279;61266;-78
2022/02/27 09:00:19;;;;;;;41.70;15.50;;;;;;;2.90;91.46;102924.23;107984;1279;60401;-77
2022/02/27 09:02:47;;;;;;;38.50;15.30;;;;;;;3.03;91.42;102917.48;107967;1279;59044;-76
2022/02/27 09:05:14;;;;;;;34.60;13.60;;;;;;;3.18;91.26;102917.52;107946;1279;71765;-76
2022/02/27 09:07:41;;;;;;;37.30;15.00;;;;;;;3.30;90.49;102916.27;107918;1279;73009;-77
2022/02/27 09:10:12;;;;;;;31.50;13.50;;;;;;;3.40;90.06;102918.73;107847;1279;61639;-76
2022/02/27 09:12:42;;;;;;;23.60;8.80;;;;;;;3.52;89.10;102918.18;108006;1279;60929;-78
2022/02/27 09:15:11;;;;;;;15.70;4.70;;;;;;;3.59;88.59;102912.91;107884;1278;77009;-78
2022/02/27 09:17:38;;;;;;;29.20;9.30;;;;;;;3.63;87.19;102912.02;107974;1278;71564;-79
2022/02/27 09:20:06;;;;;;;35.20;13.40;;;;;;;3.67;86.93;102910.43;107935;1279;73957;-77
2022/02/27 09:22:33;;;;;;;28.20;10.60;;;;;;;3.76;87.22;102914.73;107998;1279;61462;-78
2022/02/27 09:25:00;;;;;;;21.20;8.00;;;;;;;3.85;86.46;102914.80;107977;1279;60536;-79
2022/02/27 09:27:26;;;;;;;29.90;11.50;;;;;;;3.92;85.68;102920.92;107871;1280;74961;-79
2022/02/27 09:29:53;;;;;;;21.50;7.60;;;;;;;4.01;85.83;102920.64;107704;1279;71263;-80
2022/02/27 09:32:21;;;;;;;15.30;7.50;;;;;;;4.10;84.86;102920.75;108037;1279;74269;-80
2022/02/27 09:34:47;;;;;;;22.00;8.90;;;;;;;4.17;84.17;102922.51;108015;1279;61232;-76
2022/02/27 09:37:14;;;;;;;19.30;7.40;;;;;;;4.22;83.99;102925.20;108007;1279;60449;-77
2022/02/27 09:39:40;;;;;;;9.20;4.30;;;;;;;4.30;83.30;102920.06;107901;1279;76824;-77
2022/02/27 09:42:07;;;;;;;33.40;11.60;;;;;;;4.34;82.37;102919.66;107767;1279;59880;-80
2022/02/27 09:44:43;;;;;;;14.20;5.80;;;;;;;4.42;82.70;102918.57;108014;1279;59346;-78
2022/02/27 09:47:14;;;;;;;26.80;11.70;;;;;;;4.48;81.86;102919.83;107749;1279;61224;-77
2022/02/27 09:49:42;;;;;;;22.20;9.80;;;;;;;4.58;82.12;102922.63;107725;1279;60438;-78
2022/02/27 09:52:09;;;;;;;21.00;9.50;;;;;;;4.69;81.37;102924.67;107647;1279;75945;-78
2022/02/27 09:54:36;;;;;;;28.40;11.70;;;;;;;4.80;81.39;102924.81;108006;1279;59143;-77
2022/02/27 09:57:03;;;;;;;21.50;10.80;;;;;;;4.91;80.76;102923.52;107930;1279;73933;-77
2022/02/27 09:59:29;;;;;;;24.70;10.70;;;;;;;4.99;79.89;102921.13;108015;1279;62439;-76
2022/02/27 10:02:05;;;;;;;17.90;7.90;;;;;;;5.10;79.79;102919.30;107695;1279;61479;-78
2022/02/27 10:04:34;;;;;;;13.30;6.20;;;;;;;5.22;79.17;102914.11;107861;1279;75975;-77
2022/02/27 10:07:00;;;;;;;23.00;9.20;;;;;;;5.29;78.59;102909.46;107982;1279;71355;-78
2022/02/27 10:09:27;;;;;;;30.00;12.60;;;;;;;5.38;78.43;102913.71;107999;1279;73120;-77
2022/02/27 10:12:12;;;;;;;20.80;10.10;;;;;;;5.42;77.30;102908.23;107946;1278;60988;-77
2022/02/27 10:14:39;;;;;;;16.70;7.30;;;;;;;5.46;76.92;102911.70;108016;1278;60464;-76
2022/02/27 10:17:06;;;;;;;19.30;8.40;;;;;;;5.51;76.86;102913.01;107759;1279;75771;-78
2022/02/27 10:19:39;;;;;;;15.10;8.30;;;;;;;5.53;76.61;102908.17;108006;1278;72278;-78
2022/02/27 10:22:09;;;;;;;20.40;9.40;;;;;;;5.57;76.57;102908.23;107944;1279;73050;-78
2022/02/27 10:24:36;;;;;;;15.90;7.10;;;;;;;5.62;76.85;102902.85;107909;1277;62440;-78
2022/02/27 10:27:11;;;;;;;16.50;7.80;;;;;;;5.72;77.36;102899.50;107936;1278;60639;-78
2022/02/27 10:29:38;;;;;;;;;;;;;;;5.82;76.81;102894.17;108018;1278;76063;-79
2022/02/27 10:32:05;;;;;;;8.10;4.60;;;;;;;5.92;76.62;102892.02;108012;1277;59620;-79
2022/02/27 10:34:34;;;;;;;19.40;7.10;;;;;;;6.02;76.74;102887.40;107785;1279;73761;-77
2022/02/27 10:37:05;;;;;;;9.80;4.40;;;;;;;6.12;76.28;102885.59;107786;1280;61649;-76
2022/02/27 10:39:33;;;;;;;25.30;9.50;;;;;;;6.19;75.71;102884.48;107956;1278;60311;-77
2022/02/27 10:42:30;;;;;;;18.90;7.60;;;;;;;6.29;76.20;102884.08;107795;1280;75915;-78
2022/02/27 10:45:01;;;;;;;10.40;4.70;;;;;;;6.40;75.47;102880.02;107923;1279;73466;-78
2022/02/27 10:47:38;;;;;;;11.90;5.90;;;;;;;6.47;74.75;102882.57;108004;1280;72642;-77
2022/02/27 10:50:08;;;;;;;14.70;7.60;;;;;;;6.58;74.80;102877.02;107957;1277;61281;-77
2022/02/27 10:52:44;;;;;;;14.10;5.40;;;;;;;6.69;74.67;102881.27;107955;1280;60390;-77
2022/02/27 10:55:11;;;;;;;16.70;7.00;;;;;;;6.78;73.12;102877.33;107848;1279;76184;-79
2022/02/27 10:57:39;;;;;;;17.00;7.50;;;;;;;6.92;73.65;102874.53;107854;1280;72642;-79
2022/02/27 11:00:15;;;;;;;9.80;4.90;;;;;;;7.08;73.80;102867.73;107909;1279;72946;-77
2022/02/27 11:02:43;;;;;;;7.10;3.80;;;;;;;7.15;71.54;102867.05;107778;1279;61201;-76
2022/02/27 11:05:12;;;;;;;10.20;4.40;;;;;;;7.17;71.74;102862.37;107966;1280;61493;-77